Terminal Aerodrome Forecast
Issued by NWS

Home | Current Version | Previous Version | Graphics & Text | Print | Product List | Glossary On
Versions: 1 2 3 4 5 6 7 8 9 10 11 12 13 14 15 16
000
FTUS43 KGRB 310525
TAFCWA
TAF
KCWA 310525Z 3106/0106 27005KT P6SM FEW100
     FM311300 28012G17KT P6SM SCT040
     FM311800 29015G23KT P6SM SCT050
      TEMPO 3118/3122 BKN050
     FM010100 29004KT P6SM SKC=

USA.gov is the U.S. government's official web portal to all federal, state and local government web resources and services.